Pagrindinis puslapis
METAR-TAF:

METAR-TAF

Oro uostai :

Eskišechiras, Turkija

platuma: 39-47N, ilguma: 030-34E, Aukštis: 785 m

Dabartinis oras

Ataskaita buvo paskelbta 4 valandos ir 50 minutes, ne 14:02 UTC
Vėjas 8 kt iš Vakarų
Temperatūra 5°C
Drėgmė 75%
Slėgis 1022 hPa
Matomumas 10 km arba daugiau
Mažai debesys ne aukštis 1700 ft
Su prošvaistėmis ne aukštis 3000 ft
Su prošvaistėmis ne aukštis 9000 ft
lietus

METAR: LTBI 121402Z 28008KT 9999 -RA FEW017 BKN030 BKN090 05/01 Q1022 TEMPO 4000 BR RMK RWY08 28010KT

Laikas: 21:52 (18:52 UTC)

Prognozė

Ataskaita buvo paskelbta 2 valandos ir 12 minutes, ne 16:40 UTC
Prognozė galioja nuo 12 metu 18 UTC su 13 metu 03 UTC
Vėjas 2 kt nuo kintamojo kryptimis
Matomumas 10 km arba daugiau
Su prošvaistėmis ne aukštis 3000 ft
Su prošvaistėmis ne aukštis 10000 ft
Laikinai
nuo 12 metu 18 UTC su 12 metu 21 UTC
lietus
Tapsmas
nuo 12 metu 21 UTC su 12 metu 23 UTC
Išsisklaidę debesys ne aukštis 4000 ft

TAF: LTBI 121640Z 1218/1303 VRB02KT 9999 BKN030 BKN100 TEMPO 1218/1221 -RA BECMG 1221/1223 SCT040

Orai ataskaitas ir orų prognozės (METAR, TAF).

turimą stotys yra geltonos ir raudonos taškus žemėlapyje.

Perkelti pele per norėdami pamatyti stoties vardą.

Tada spustelėkite, norėdami matyti oro stebėjimo ir prognozės.

Norėdami pakeisti žemėlapį: spustelėkite ant žalios mygtukų su juodo kryžiaus žemyn,; žalią mygtuką su brūkšneliu, jei norite nutolinti; arba žalių rodyklių gretimoms žemėlapius.


METAR-TAF: